New River MCAS, H, Mccutcheon Fld, Airport Jacksonville US
ICAO: KNCA
IATA: NCA
Category: Medium
Scheduled Services: No

Elevation: 26 ft
TransAlt. 18000 ft.

Airport Communications:
CHERRY POINT APP/DEP:119.35
ARRIVAL:124.85
ATIS:28.832
CLNC DEL:23.902
GND:121.8
OPS:23.64
PMSV METRO:24.477
TWR:120

KNCA Zoom In..

If you have problems with the map follow the link
https://www.worldairports.se/pages/airport.php?
ICAO=KNCA

Runways:

(A) RW 01 length 4790 ft width 150 ft
ILS 111.10 / hdg 8

(B) RW 05 length 5114 ft width 150 ft
---- / hdg 53

(C) RW 19 length 4790 ft width 150 ft
---- / hdg 188

(D) RW 23 length 5114 ft width 150 ft
---- / hdg 233

Location; KNCA
Day. 14 / Time. 10.56 Zulu
* Altimeter: 30.27
* Temperature: 10° c. 50°f.
* Wind from: 020° Speed 10 kn.
Dewpoint: 09° c.
Visibility: 10 Statute Miles.
Clouds: Few 7000 ft.
Clouds: Overcast 1000 ft.

KNCA 141056Z AUTO 02010KT 10SM FEW070 OVC100 10/09 A3027 RMK AO2 RAE55 SLP252 P0000 T01000094


Wind From 020°
Speed 10 kn.

 
 
jpsmedia.com for Web Design worldairports.se 2018   terms of use